sensor_id;sensor_type;location;lat;lon;timestamp;pressure;altitude;pressure_sealevel;temperature;humidity
77086;BME280;66014;53.134;18.006;2023-06-14T00:01:10;101352.48;;;16.36;56.19
77086;BME280;66014;53.134;18.006;2023-06-14T00:03:43;101354.87;;;16.34;56.24
77086;BME280;66014;53.134;18.006;2023-06-14T00:06:10;101355.03;;;16.33;56.19
77086;BME280;66014;53.134;18.006;2023-06-14T00:08:37;101356.22;;;16.32;56.27
77086;BME280;66014;53.134;18.006;2023-06-14T00:11:04;101352.23;;;16.29;56.42
77086;BME280;66014;53.134;18.006;2023-06-14T00:13:32;101344.75;;;16.28;56.63
77086;BME280;66014;53.134;18.006;2023-06-14T00:15:58;101344.75;;;16.28;56.71
77086;BME280;66014;53.134;18.006;2023-06-14T00:18:24;101342.36;;;16.28;56.77
77086;BME280;66014;53.134;18.006;2023-06-14T00:20:53;101345.25;;;16.29;56.69
77086;BME280;66014;53.134;18.006;2023-06-14T00:23:19;101340.23;;;16.30;56.66
77086;BME280;66014;53.134;18.006;2023-06-14T00:25:46;101343.73;;;16.30;56.75
77086;BME280;66014;53.134;18.006;2023-06-14T00:28:13;101345.46;;;16.31;56.83
77086;BME280;66014;53.134;18.006;2023-06-14T00:30:39;101343.77;;;16.31;56.94
77086;BME280;66014;53.134;18.006;2023-06-14T00:33:06;101342.86;;;16.31;56.89
77086;BME280;66014;53.134;18.006;2023-06-14T00:35:32;101338.44;;;16.32;56.93
77086;BME280;66014;53.134;18.006;2023-06-14T00:37:59;101339.89;;;16.32;57.11
77086;BME280;66014;53.134;18.006;2023-06-14T00:40:25;101335.26;;;16.32;57.11
77086;BME280;66014;53.134;18.006;2023-06-14T00:42:52;101331.41;;;16.31;57.53
77086;BME280;66014;53.134;18.006;2023-06-14T00:45:19;101327.48;;;16.30;57.72
77086;BME280;66014;53.134;18.006;2023-06-14T00:47:46;101322.98;;;16.30;58.07
77086;BME280;66014;53.134;18.006;2023-06-14T00:50:13;101322.61;;;16.26;58.10
77086;BME280;66014;53.134;18.006;2023-06-14T00:52:39;101317.11;;;16.24;58.11
77086;BME280;66014;53.134;18.006;2023-06-14T00:55:06;101311.98;;;16.24;58.11
77086;BME280;66014;53.134;18.006;2023-06-14T00:57:33;101312.41;;;16.26;57.89
77086;BME280;66014;53.134;18.006;2023-06-14T01:00:04;101308.74;;;16.28;57.84
77086;BME280;66014;53.134;18.006;2023-06-14T01:02:38;101312.45;;;16.31;57.66
77086;BME280;66014;53.134;18.006;2023-06-14T01:05:05;101310.15;;;16.35;57.68
77086;BME280;66014;53.134;18.006;2023-06-14T01:07:46;101307.02;;;16.37;57.74
77086;BME280;66014;53.134;18.006;2023-06-14T01:10:36;101300.69;;;16.37;57.78
77086;BME280;66014;53.134;18.006;2023-06-14T01:16:01;101291.85;;;16.38;57.85
77086;BME280;66014;53.134;18.006;2023-06-14T01:18:28;101290.16;;;16.40;57.87
77086;BME280;66014;53.134;18.006;2023-06-14T01:20:56;101288.23;;;16.40;57.99
77086;BME280;66014;53.134;18.006;2023-06-14T01:23:23;101287.98;;;16.39;58.21
77086;BME280;66014;53.134;18.006;2023-06-14T01:25:50;101286.80;;;16.37;58.05
77086;BME280;66014;53.134;18.006;2023-06-14T01:28:21;101288.80;;;16.34;58.29
77086;BME280;66014;53.134;18.006;2023-06-14T01:30:50;101289.49;;;16.30;58.04
77086;BME280;66014;53.134;18.006;2023-06-14T01:33:22;101291.08;;;16.25;58.19
77086;BME280;66014;53.134;18.006;2023-06-14T01:35:51;101290.01;;;16.19;58.18
77086;BME280;66014;53.134;18.006;2023-06-14T01:38:21;101289.77;;;16.14;58.28
77086;BME280;66014;53.134;18.006;2023-06-14T01:40:49;101287.93;;;16.09;58.32
77086;BME280;66014;53.134;18.006;2023-06-14T01:43:18;101285.17;;;16.06;58.50
77086;BME280;66014;53.134;18.006;2023-06-14T01:45:46;101283.46;;;16.02;58.62
77086;BME280;66014;53.134;18.006;2023-06-14T01:48:15;101280.72;;;16.00;58.63
77086;BME280;66014;53.134;18.006;2023-06-14T01:50:42;101283.43;;;15.97;58.66
77086;BME280;66014;53.134;18.006;2023-06-14T01:53:09;101281.30;;;15.94;58.71
77086;BME280;66014;53.134;18.006;2023-06-14T01:55:36;101277.80;;;15.91;58.89
77086;BME280;66014;53.134;18.006;2023-06-14T01:58:10;101279.98;;;15.89;58.87
77086;BME280;66014;53.134;18.006;2023-06-14T02:00:37;101275.42;;;15.88;58.96
77086;BME280;66014;53.134;18.006;2023-06-14T02:03:03;101271.78;;;15.86;58.99
77086;BME280;66014;53.134;18.006;2023-06-14T02:05:30;101269.87;;;15.85;59.15
77086;BME280;66014;53.134;18.006;2023-06-14T02:07:57;101271.55;;;15.83;59.27
77086;BME280;66014;53.134;18.006;2023-06-14T02:10:23;101270.42;;;15.80;59.27
77086;BME280;66014;53.134;18.006;2023-06-14T02:12:50;101270.98;;;15.79;59.52
77086;BME280;66014;53.134;18.006;2023-06-14T02:15:16;101271.73;;;15.77;59.52
77086;BME280;66014;53.134;18.006;2023-06-14T02:17:44;101275.01;;;15.75;59.46
77086;BME280;66014;53.134;18.006;2023-06-14T02:20:11;101270.95;;;15.73;59.56
77086;BME280;66014;53.134;18.006;2023-06-14T02:22:38;101272.48;;;15.73;59.62
77086;BME280;66014;53.134;18.006;2023-06-14T02:25:05;101275.44;;;15.72;59.60
77086;BME280;66014;53.134;18.006;2023-06-14T02:27:33;101277.30;;;15.71;59.53
77086;BME280;66014;53.134;18.006;2023-06-14T02:30:00;101277.60;;;15.69;59.56
77086;BME280;66014;53.134;18.006;2023-06-14T02:32:27;101287.33;;;15.66;59.62
77086;BME280;66014;53.134;18.006;2023-06-14T02:34:54;101278.98;;;15.65;59.62
77086;BME280;66014;53.134;18.006;2023-06-14T02:37:21;101268.64;;;15.68;59.79
77086;BME280;66014;53.134;18.006;2023-06-14T02:39:48;101275.20;;;15.68;59.79
77086;BME280;66014;53.134;18.006;2023-06-14T02:42:14;101280.38;;;15.67;59.67
77086;BME280;66014;53.134;18.006;2023-06-14T02:44:41;101279.13;;;15.66;59.71
77086;BME280;66014;53.134;18.006;2023-06-14T02:47:09;101268.63;;;15.72;59.85
77086;BME280;66014;53.134;18.006;2023-06-14T02:49:36;101266.30;;;15.82;59.40
77086;BME280;66014;53.134;18.006;2023-06-14T02:52:02;101262.16;;;15.86;59.10
77086;BME280;66014;53.134;18.006;2023-06-14T02:54:29;101263.19;;;15.86;58.95
77086;BME280;66014;53.134;18.006;2023-06-14T02:56:55;101252.08;;;15.85;58.90
77086;BME280;66014;53.134;18.006;2023-06-14T02:59:23;101255.33;;;15.85;58.95
77086;BME280;66014;53.134;18.006;2023-06-14T03:01:51;101252.89;;;15.83;59.25
77086;BME280;66014;53.134;18.006;2023-06-14T03:04:17;101254.85;;;15.80;59.41
77086;BME280;66014;53.134;18.006;2023-06-14T03:06:44;101251.94;;;15.78;59.59
77086;BME280;66014;53.134;18.006;2023-06-14T03:09:11;101249.45;;;15.75;59.92
77086;BME280;66014;53.134;18.006;2023-06-14T03:11:38;101253.48;;;15.73;60.09
77086;BME280;66014;53.134;18.006;2023-06-14T03:14:04;101250.08;;;15.70;60.44
77086;BME280;66014;53.134;18.006;2023-06-14T03:16:34;101250.80;;;15.67;60.64
77086;BME280;66014;53.134;18.006;2023-06-14T03:19:01;101247.83;;;15.65;60.80
77086;BME280;66014;53.134;18.006;2023-06-14T03:21:27;101245.78;;;15.65;60.91
77086;BME280;66014;53.134;18.006;2023-06-14T03:23:54;101250.34;;;15.62;60.83
77086;BME280;66014;53.134;18.006;2023-06-14T03:26:21;101252.93;;;15.60;60.75
77086;BME280;66014;53.134;18.006;2023-06-14T03:28:48;101253.49;;;15.59;60.78
77086;BME280;66014;53.134;18.006;2023-06-14T03:31:16;101254.73;;;15.58;60.97
77086;BME280;66014;53.134;18.006;2023-06-14T03:33:43;101253.39;;;15.56;60.97
77086;BME280;66014;53.134;18.006;2023-06-14T03:36:09;101254.45;;;15.54;61.09
77086;BME280;66014;53.134;18.006;2023-06-14T03:38:36;101262.34;;;15.54;60.89
77086;BME280;66014;53.134;18.006;2023-06-14T03:41:02;101259.70;;;15.54;60.98
77086;BME280;66014;53.134;18.006;2023-06-14T03:43:29;101261.81;;;15.56;60.92
77086;BME280;66014;53.134;18.006;2023-06-14T03:45:56;101254.75;;;15.56;61.01
77086;BME280;66014;53.134;18.006;2023-06-14T03:48:23;101257.45;;;15.59;61.10
77086;BME280;66014;53.134;18.006;2023-06-14T03:50:49;101256.67;;;15.59;60.98
77086;BME280;66014;53.134;18.006;2023-06-14T03:53:16;101259.33;;;15.58;61.16
77086;BME280;66014;53.134;18.006;2023-06-14T03:55:43;101262.98;;;15.58;61.46
77086;BME280;66014;53.134;18.006;2023-06-14T03:58:09;101266.03;;;15.57;61.47
77086;BME280;66014;53.134;18.006;2023-06-14T04:00:38;101267.12;;;15.59;61.41
77086;BME280;66014;53.134;18.006;2023-06-14T04:03:04;101265.70;;;15.59;61.24
77086;BME280;66014;53.134;18.006;2023-06-14T04:05:32;101268.80;;;15.58;61.53
77086;BME280;66014;53.134;18.006;2023-06-14T04:07:59;101273.92;;;15.57;61.59
77086;BME280;66014;53.134;18.006;2023-06-14T04:10:27;101282.44;;;15.58;61.69
77086;BME280;66014;53.134;18.006;2023-06-14T04:13:03;101291.02;;;15.58;61.57
77086;BME280;66014;53.134;18.006;2023-06-14T04:15:29;101280.20;;;15.58;61.76
77086;BME280;66014;53.134;18.006;2023-06-14T04:17:56;101282.34;;;15.57;61.62
77086;BME280;66014;53.134;18.006;2023-06-14T04:20:23;101280.27;;;15.55;61.71
77086;BME280;66014;53.134;18.006;2023-06-14T04:22:52;101280.59;;;15.57;61.80
77086;BME280;66014;53.134;18.006;2023-06-14T04:25:19;101285.54;;;15.59;61.94
77086;BME280;66014;53.134;18.006;2023-06-14T04:27:50;101288.23;;;15.61;61.97
77086;BME280;66014;53.134;18.006;2023-06-14T04:30:19;101291.11;;;15.64;61.99
77086;BME280;66014;53.134;18.006;2023-06-14T04:32:45;101287.00;;;15.67;62.01
77086;BME280;66014;53.134;18.006;2023-06-14T04:35:12;101285.05;;;15.71;62.04
77086;BME280;66014;53.134;18.006;2023-06-14T04:37:38;101283.88;;;15.74;61.77
77086;BME280;66014;53.134;18.006;2023-06-14T04:40:09;101282.17;;;15.78;61.74
77086;BME280;66014;53.134;18.006;2023-06-14T04:42:37;101282.67;;;15.84;61.81
77086;BME280;66014;53.134;18.006;2023-06-14T04:45:03;101284.91;;;15.90;61.79
77086;BME280;66014;53.134;18.006;2023-06-14T04:47:33;101285.63;;;15.98;61.58
77086;BME280;66014;53.134;18.006;2023-06-14T04:50:00;101284.93;;;16.06;61.36
77086;BME280;66014;53.134;18.006;2023-06-14T04:52:27;101280.59;;;16.13;61.25
77086;BME280;66014;53.134;18.006;2023-06-14T04:54:56;101283.05;;;16.22;61.05
77086;BME280;66014;53.134;18.006;2023-06-14T04:57:23;101283.70;;;16.29;60.70
77086;BME280;66014;53.134;18.006;2023-06-14T04:59:51;101280.91;;;16.33;60.43
77086;BME280;66014;53.134;18.006;2023-06-14T05:02:22;101282.17;;;16.35;60.33
77086;BME280;66014;53.134;18.006;2023-06-14T05:04:53;101276.63;;;16.39;60.17
77086;BME280;66014;53.134;18.006;2023-06-14T05:07:23;101273.47;;;16.44;60.30
77086;BME280;66014;53.134;18.006;2023-06-14T05:09:51;101282.06;;;16.52;60.03
77086;BME280;66014;53.134;18.006;2023-06-14T05:12:18;101280.20;;;16.62;59.93
77086;BME280;66014;53.134;18.006;2023-06-14T05:14:45;101272.01;;;16.70;59.68
77086;BME280;66014;53.134;18.006;2023-06-14T05:17:12;101267.85;;;16.76;59.53
77086;BME280;66014;53.134;18.006;2023-06-14T05:19:38;101267.08;;;16.80;59.52
77086;BME280;66014;53.134;18.006;2023-06-14T05:22:05;101267.92;;;16.83;59.49
77086;BME280;66014;53.134;18.006;2023-06-14T05:24:32;101275.61;;;16.84;59.48
77086;BME280;66014;53.134;18.006;2023-06-14T05:26:58;101288.07;;;16.85;59.71
77086;BME280;66014;53.134;18.006;2023-06-14T05:29:25;101299.12;;;16.85;59.63
77086;BME280;66014;53.134;18.006;2023-06-14T05:31:52;101305.45;;;16.89;59.73
77086;BME280;66014;53.134;18.006;2023-06-14T05:34:18;101303.89;;;16.95;59.52
77086;BME280;66014;53.134;18.006;2023-06-14T05:36:45;101300.89;;;17.00;59.38
77086;BME280;66014;53.134;18.006;2023-06-14T05:39:11;101297.48;;;17.06;59.31
77086;BME280;66014;53.134;18.006;2023-06-14T05:41:38;101290.70;;;17.11;59.39
77086;BME280;66014;53.134;18.006;2023-06-14T05:44:04;101282.10;;;17.13;59.34
77086;BME280;66014;53.134;18.006;2023-06-14T05:46:31;101270.17;;;17.14;59.29
77086;BME280;66014;53.134;18.006;2023-06-14T05:48:58;101261.45;;;17.15;59.10
77086;BME280;66014;53.134;18.006;2023-06-14T05:51:24;101262.48;;;17.15;58.87
77086;BME280;66014;53.134;18.006;2023-06-14T05:53:54;101265.67;;;17.15;58.74
77086;BME280;66014;53.134;18.006;2023-06-14T05:56:21;101262.45;;;17.24;58.83
77086;BME280;66014;53.134;18.006;2023-06-14T05:58:47;101259.20;;;17.40;58.51
77086;BME280;66014;53.134;18.006;2023-06-14T06:01:14;101258.06;;;17.59;58.21
77086;BME280;66014;53.134;18.006;2023-06-14T06:03:41;101252.08;;;17.79;57.70
77086;BME280;66014;53.134;18.006;2023-06-14T06:06:07;101254.83;;;17.99;57.41
77086;BME280;66014;53.134;18.006;2023-06-14T06:08:34;101251.95;;;18.18;57.09
77086;BME280;66014;53.134;18.006;2023-06-14T06:11:01;101257.69;;;18.36;56.89
77086;BME280;66014;53.134;18.006;2023-06-14T06:13:30;101261.39;;;18.56;56.44
77086;BME280;66014;53.134;18.006;2023-06-14T06:15:56;101267.21;;;18.77;55.70
77086;BME280;66014;53.134;18.006;2023-06-14T06:18:23;101269.89;;;18.97;55.49
77086;BME280;66014;53.134;18.006;2023-06-14T06:20:49;101271.05;;;19.19;54.90
77086;BME280;66014;53.134;18.006;2023-06-14T06:23:16;101267.38;;;19.51;54.34
77086;BME280;66014;53.134;18.006;2023-06-14T06:25:43;101274.26;;;19.99;53.58
77086;BME280;66014;53.134;18.006;2023-06-14T06:28:10;101274.10;;;20.36;52.71
77086;BME280;66014;53.134;18.006;2023-06-14T06:30:40;101274.86;;;20.65;52.19
77086;BME280;66014;53.134;18.006;2023-06-14T06:33:06;101279.36;;;20.92;51.46
77086;BME280;66014;53.134;18.006;2023-06-14T06:35:33;101285.52;;;21.27;50.84
77086;BME280;66014;53.134;18.006;2023-06-14T06:37:59;101282.70;;;21.54;50.24
77086;BME280;66014;53.134;18.006;2023-06-14T06:40:27;101284.70;;;21.62;49.41
77086;BME280;66014;53.134;18.006;2023-06-14T06:42:53;101284.15;;;21.60;49.20
77086;BME280;66014;53.134;18.006;2023-06-14T06:45:20;101288.20;;;21.57;48.99
77086;BME280;66014;53.134;18.006;2023-06-14T06:47:51;101289.48;;;21.52;48.73
77086;BME280;66014;53.134;18.006;2023-06-14T06:50:18;101287.93;;;21.44;48.53
77086;BME280;66014;53.134;18.006;2023-06-14T06:52:46;101292.55;;;21.35;48.48
77086;BME280;66014;53.134;18.006;2023-06-14T06:55:13;101295.63;;;21.22;48.47
77086;BME280;66014;53.134;18.006;2023-06-14T06:57:41;101299.34;;;21.09;48.42
77086;BME280;66014;53.134;18.006;2023-06-14T07:00:10;101298.15;;;20.95;48.06
77086;BME280;66014;53.134;18.006;2023-06-14T07:02:41;101298.61;;;20.82;48.21
77086;BME280;66014;53.134;18.006;2023-06-14T07:05:08;101298.12;;;20.72;48.26
77086;BME280;66014;53.134;18.006;2023-06-14T07:07:36;101299.30;;;20.67;48.59
77086;BME280;66014;53.134;18.006;2023-06-14T07:10:03;101301.78;;;20.63;48.51
77086;BME280;66014;53.134;18.006;2023-06-14T07:12:32;101299.14;;;20.57;48.40
77086;BME280;66014;53.134;18.006;2023-06-14T07:15:07;101300.73;;;20.53;48.41
77086;BME280;66014;53.134;18.006;2023-06-14T07:17:35;101300.70;;;20.46;48.34
77086;BME280;66014;53.134;18.006;2023-06-14T07:20:03;101305.30;;;20.39;48.51
77086;BME280;66014;53.134;18.006;2023-06-14T07:22:42;101312.52;;;20.34;48.66
77086;BME280;66014;53.134;18.006;2023-06-14T07:25:10;101315.67;;;20.31;48.76
77086;BME280;66014;53.134;18.006;2023-06-14T07:27:53;101316.36;;;20.29;48.78
77086;BME280;66014;53.134;18.006;2023-06-14T07:30:20;101320.83;;;20.23;48.75
77086;BME280;66014;53.134;18.006;2023-06-14T07:32:54;101319.05;;;20.23;48.80
77086;BME280;66014;53.134;18.006;2023-06-14T07:35:21;101312.02;;;20.31;48.89
77086;BME280;66014;53.134;18.006;2023-06-14T07:37:48;101306.16;;;20.40;48.83
77086;BME280;66014;53.134;18.006;2023-06-14T07:40:16;101308.58;;;20.49;48.37
77086;BME280;66014;53.134;18.006;2023-06-14T07:42:42;101303.58;;;20.50;48.33
77086;BME280;66014;53.134;18.006;2023-06-14T07:45:09;101297.45;;;20.49;48.26
77086;BME280;66014;53.134;18.006;2023-06-14T07:47:36;101295.77;;;20.46;48.32
77086;BME280;66014;53.134;18.006;2023-06-14T07:50:03;101285.98;;;20.45;48.33
77086;BME280;66014;53.134;18.006;2023-06-14T07:52:31;101277.30;;;20.47;48.24
77086;BME280;66014;53.134;18.006;2023-06-14T07:54:57;101276.02;;;20.46;48.27
77086;BME280;66014;53.134;18.006;2023-06-14T07:57:25;101286.08;;;20.51;48.32
77086;BME280;66014;53.134;18.006;2023-06-14T07:59:51;101289.82;;;20.55;48.10
77086;BME280;66014;53.134;18.006;2023-06-14T08:02:19;101286.73;;;20.62;48.10
77086;BME280;66014;53.134;18.006;2023-06-14T08:04:45;101286.84;;;20.69;47.96
77086;BME280;66014;53.134;18.006;2023-06-14T08:07:14;101287.41;;;20.77;47.77
77086;BME280;66014;53.134;18.006;2023-06-14T08:09:41;101282.99;;;20.83;47.70
77086;BME280;66014;53.134;18.006;2023-06-14T08:12:09;101281.98;;;20.89;47.55
77086;BME280;66014;53.134;18.006;2023-06-14T08:14:39;101281.33;;;20.98;47.39
77086;BME280;66014;53.134;18.006;2023-06-14T08:17:06;101285.05;;;21.09;47.06
77086;BME280;66014;53.134;18.006;2023-06-14T08:19:32;101295.16;;;21.23;46.95
77086;BME280;66014;53.134;18.006;2023-06-14T08:21:59;101298.08;;;21.37;46.79
77086;BME280;66014;53.134;18.006;2023-06-14T08:24:26;101297.73;;;21.48;46.53
77086;BME280;66014;53.134;18.006;2023-06-14T08:26:55;101295.60;;;21.59;46.28
77086;BME280;66014;53.134;18.006;2023-06-14T08:29:27;101294.26;;;21.67;45.78
77086;BME280;66014;53.134;18.006;2023-06-14T08:31:57;101298.13;;;21.71;45.63
77086;BME280;66014;53.134;18.006;2023-06-14T08:34:24;101293.11;;;21.70;45.42
77086;BME280;66014;53.134;18.006;2023-06-14T08:36:51;101282.19;;;21.66;45.14
77086;BME280;66014;53.134;18.006;2023-06-14T08:39:21;101285.95;;;21.58;45.34
77086;BME280;66014;53.134;18.006;2023-06-14T08:41:51;101293.14;;;21.53;45.36
77086;BME280;66014;53.134;18.006;2023-06-14T08:44:19;101295.42;;;21.51;45.11
77086;BME280;66014;53.134;18.006;2023-06-14T08:46:51;101303.04;;;21.53;44.89
77086;BME280;66014;53.134;18.006;2023-06-14T08:49:19;101299.02;;;21.59;44.96
77086;BME280;66014;53.134;18.006;2023-06-14T08:51:59;101296.17;;;21.68;44.78
77086;BME280;66014;53.134;18.006;2023-06-14T08:54:36;101300.49;;;21.82;44.67
77086;BME280;66014;53.134;18.006;2023-06-14T08:57:14;101301.27;;;21.94;44.33
77086;BME280;66014;53.134;18.006;2023-06-14T08:59:52;101302.63;;;22.03;44.20
77086;BME280;66014;53.134;18.006;2023-06-14T09:02:20;101302.05;;;22.16;43.91
77086;BME280;66014;53.134;18.006;2023-06-14T09:04:48;101300.85;;;22.32;43.72
77086;BME280;66014;53.134;18.006;2023-06-14T09:07:19;101304.98;;;22.63;43.25
77086;BME280;66014;53.134;18.006;2023-06-14T09:09:47;101308.50;;;22.81;42.71
77086;BME280;66014;53.134;18.006;2023-06-14T09:12:17;101306.77;;;22.85;42.74
77086;BME280;66014;53.134;18.006;2023-06-14T09:14:50;101307.52;;;22.89;42.50
77086;BME280;66014;53.134;18.006;2023-06-14T09:17:17;101309.66;;;22.91;42.30
77086;BME280;66014;53.134;18.006;2023-06-14T09:19:47;101313.80;;;22.93;42.69
77086;BME280;66014;53.134;18.006;2023-06-14T09:22:23;101316.16;;;23.03;42.36
77086;BME280;66014;53.134;18.006;2023-06-14T09:24:50;101314.18;;;22.99;42.14
77086;BME280;66014;53.134;18.006;2023-06-14T09:27:19;101315.36;;;22.88;42.13
77086;BME280;66014;53.134;18.006;2023-06-14T09:29:47;101311.15;;;22.70;42.19
77086;BME280;66014;53.134;18.006;2023-06-14T09:32:15;101314.13;;;22.55;42.46
77086;BME280;66014;53.134;18.006;2023-06-14T09:35:02;101311.68;;;22.45;42.61
77086;BME280;66014;53.134;18.006;2023-06-14T09:37:34;101313.61;;;22.42;42.59
77086;BME280;66014;53.134;18.006;2023-06-14T09:40:07;101314.84;;;22.37;42.31
77086;BME280;66014;53.134;18.006;2023-06-14T09:42:34;101310.02;;;22.29;42.44
77086;BME280;66014;53.134;18.006;2023-06-14T09:45:04;101305.05;;;22.40;42.23
77086;BME280;66014;53.134;18.006;2023-06-14T09:47:33;101302.02;;;22.67;42.07
77086;BME280;66014;53.134;18.006;2023-06-14T09:50:00;101299.40;;;23.01;41.50
77086;BME280;66014;53.134;18.006;2023-06-14T09:52:27;101298.64;;;23.51;40.78
77086;BME280;66014;53.134;18.006;2023-06-14T09:55:18;101301.42;;;24.22;39.83
77086;BME280;66014;53.134;18.006;2023-06-14T09:57:52;101297.29;;;24.60;39.14
77086;BME280;66014;53.134;18.006;2023-06-14T10:00:23;101298.39;;;24.91;38.45
77086;BME280;66014;53.134;18.006;2023-06-14T10:03:14;101294.96;;;26.58;37.20
77086;BME280;66014;53.134;18.006;2023-06-14T10:05:50;101290.27;;;27.35;36.08
77086;BME280;66014;53.134;18.006;2023-06-14T10:08:27;101288.21;;;27.48;35.50
77086;BME280;66014;53.134;18.006;2023-06-14T10:10:57;101283.60;;;28.68;33.55
77086;BME280;66014;53.134;18.006;2023-06-14T10:13:26;101284.95;;;30.09;31.63
77086;BME280;66014;53.134;18.006;2023-06-14T10:18:51;101278.46;;;29.98;30.88
77086;BME280;66014;53.134;18.006;2023-06-14T10:24:19;101270.30;;;31.66;29.14
77086;BME280;66014;53.134;18.006;2023-06-14T10:26:53;101272.95;;;33.77;27.33
77086;BME280;66014;53.134;18.006;2023-06-14T10:29:21;101273.38;;;34.21;26.07
77086;BME280;66014;53.134;18.006;2023-06-14T10:31:53;101266.41;;;33.20;26.26
77086;BME280;66014;53.134;18.006;2023-06-14T10:34:25;101264.21;;;32.20;26.75
77086;BME280;66014;53.134;18.006;2023-06-14T10:37:12;101259.95;;;31.34;26.83
77086;BME280;66014;53.134;18.006;2023-06-14T10:40:31;101262.21;;;30.38;27.60
77086;BME280;66014;53.134;18.006;2023-06-14T10:42:58;101257.36;;;30.42;27.58
77086;BME280;66014;53.134;18.006;2023-06-14T10:45:26;101255.09;;;32.57;26.17
77086;BME280;66014;53.134;18.006;2023-06-14T10:47:57;101248.34;;;33.10;25.54
77086;BME280;66014;53.134;18.006;2023-06-14T10:50:29;101251.04;;;33.69;24.60
77086;BME280;66014;53.134;18.006;2023-06-14T10:52:57;101244.23;;;35.30;23.20
77086;BME280;66014;53.134;18.006;2023-06-14T10:55:24;101243.04;;;36.48;22.37
77086;BME280;66014;53.134;18.006;2023-06-14T10:57:53;101245.02;;;37.84;21.33
77086;BME280;66014;53.134;18.006;2023-06-14T11:00:27;101241.33;;;38.92;19.62
77086;BME280;66014;53.134;18.006;2023-06-14T11:10:59;101228.04;;;39.18;17.67
77086;BME280;66014;53.134;18.006;2023-06-14T11:13:26;101225.31;;;39.63;17.39
77086;BME280;66014;53.134;18.006;2023-06-14T11:15:55;101225.75;;;40.21;16.74
77086;BME280;66014;53.134;18.006;2023-06-14T11:18:30;101222.99;;;40.19;16.51
77086;BME280;66014;53.134;18.006;2023-06-14T11:20:57;101219.89;;;39.94;16.65
77086;BME280;66014;53.134;18.006;2023-06-14T11:23:24;101217.86;;;38.91;17.20
77086;BME280;66014;53.134;18.006;2023-06-14T11:25:51;101223.80;;;38.01;17.82
77086;BME280;66014;53.134;18.006;2023-06-14T11:28:18;101217.43;;;37.92;18.02
77086;BME280;66014;53.134;18.006;2023-06-14T11:31:05;101220.25;;;38.67;17.64
77086;BME280;66014;53.134;18.006;2023-06-14T11:33:38;101217.21;;;37.44;18.15
77086;BME280;66014;53.134;18.006;2023-06-14T11:36:11;101206.87;;;36.05;18.84
77086;BME280;66014;53.134;18.006;2023-06-14T11:38:39;101208.33;;;34.74;19.94
77086;BME280;66014;53.134;18.006;2023-06-14T11:41:06;101208.06;;;33.78;20.51
77086;BME280;66014;53.134;18.006;2023-06-14T11:43:33;101208.55;;;32.98;21.47
77086;BME280;66014;53.134;18.006;2023-06-14T11:46:01;101208.42;;;32.39;21.53
77086;BME280;66014;53.134;18.006;2023-06-14T11:48:38;101204.27;;;31.70;21.66
77086;BME280;66014;53.134;18.006;2023-06-14T11:51:07;101207.06;;;30.90;22.83
77086;BME280;66014;53.134;18.006;2023-06-14T11:53:34;101206.53;;;30.07;24.30
77086;BME280;66014;53.134;18.006;2023-06-14T11:56:02;101207.43;;;29.17;25.75
77086;BME280;66014;53.134;18.006;2023-06-14T11:58:29;101199.31;;;28.31;26.63
77086;BME280;66014;53.134;18.006;2023-06-14T12:00:56;101201.34;;;27.62;27.49
77086;BME280;66014;53.134;18.006;2023-06-14T12:03:26;101200.20;;;26.89;28.54
77086;BME280;66014;53.134;18.006;2023-06-14T12:06:06;101195.71;;;26.23;29.24
77086;BME280;66014;53.134;18.006;2023-06-14T12:08:37;101192.23;;;25.77;30.07
77086;BME280;66014;53.134;18.006;2023-06-14T12:11:13;101196.59;;;25.39;30.96
77086;BME280;66014;53.134;18.006;2023-06-14T12:13:42;101191.86;;;25.00;31.97
77086;BME280;66014;53.134;18.006;2023-06-14T12:16:10;101198.86;;;24.61;32.78
77086;BME280;66014;53.134;18.006;2023-06-14T12:18:39;101196.51;;;24.20;32.93
77086;BME280;66014;53.134;18.006;2023-06-14T12:21:07;101198.83;;;23.88;33.19
77086;BME280;66014;53.134;18.006;2023-06-14T12:23:44;101197.08;;;23.61;33.45
77086;BME280;66014;53.134;18.006;2023-06-14T12:26:18;101199.55;;;23.42;33.99
77086;BME280;66014;53.134;18.006;2023-06-14T12:28:47;101197.02;;;23.19;34.36
77086;BME280;66014;53.134;18.006;2023-06-14T12:31:25;101199.13;;;22.98;34.28
77086;BME280;66014;53.134;18.006;2023-06-14T12:33:55;101199.79;;;22.83;34.50
77086;BME280;66014;53.134;18.006;2023-06-14T12:36:21;101194.96;;;22.72;34.85
77086;BME280;66014;53.134;18.006;2023-06-14T12:38:48;101192.95;;;22.60;35.46
77086;BME280;66014;53.134;18.006;2023-06-14T12:41:17;101190.36;;;22.49;35.43
77086;BME280;66014;53.134;18.006;2023-06-14T12:43:44;101193.13;;;22.41;35.29
77086;BME280;66014;53.134;18.006;2023-06-14T12:46:11;101195.41;;;22.34;35.29
77086;BME280;66014;53.134;18.006;2023-06-14T12:48:39;101198.30;;;22.29;35.29
77086;BME280;66014;53.134;18.006;2023-06-14T12:51:22;101207.73;;;22.23;35.29
77086;BME280;66014;53.134;18.006;2023-06-14T12:53:51;101208.53;;;22.17;35.77
77086;BME280;66014;53.134;18.006;2023-06-14T12:56:19;101209.53;;;22.11;36.11
77086;BME280;66014;53.134;18.006;2023-06-14T12:58:46;101214.09;;;22.06;36.21
77086;BME280;66014;53.134;18.006;2023-06-14T13:01:13;101218.54;;;22.04;36.67
77086;BME280;66014;53.134;18.006;2023-06-14T13:03:42;101226.44;;;22.03;37.50
77086;BME280;66014;53.134;18.006;2023-06-14T13:06:10;101237.89;;;22.00;40.03